sensor_id;sensor_type;location;lat;lon;timestamp;pressure;altitude;pressure_sealevel;temperature;humidity
48404;BME280;34202;52.536;6.042;2023-01-29T00:02:21;103062.89;;;3.20;98.52
48404;BME280;34202;52.536;6.042;2023-01-29T00:07:22;103045.42;;;3.19;98.49
48404;BME280;34202;52.536;6.042;2023-01-29T00:12:22;103040.44;;;3.17;98.73
48404;BME280;34202;52.536;6.042;2023-01-29T00:17:22;103039.24;;;3.17;98.97
48404;BME280;34202;52.536;6.042;2023-01-29T00:22:23;103028.23;;;3.17;99.17
48404;BME280;34202;52.536;6.042;2023-01-29T00:27:23;103016.56;;;3.18;99.23
48404;BME280;34202;52.536;6.042;2023-01-29T00:32:24;103018.75;;;3.17;99.29
48404;BME280;34202;52.536;6.042;2023-01-29T00:37:24;103022.05;;;3.18;99.58
48404;BME280;34202;52.536;6.042;2023-01-29T00:42:24;103025.14;;;3.17;99.49
48404;BME280;34202;52.536;6.042;2023-01-29T00:47:43;103017.98;;;3.18;99.70
48404;BME280;34202;52.536;6.042;2023-01-29T00:52:43;103010.21;;;3.18;99.87
48404;BME280;34202;52.536;6.042;2023-01-29T00:57:45;103010.89;;;3.18;99.71
48404;BME280;34202;52.536;6.042;2023-01-29T01:02:45;103003.30;;;3.17;99.95
48404;BME280;34202;52.536;6.042;2023-01-29T01:08:04;102997.09;;;3.17;99.87
48404;BME280;34202;52.536;6.042;2023-01-29T01:13:24;102997.69;;;3.18;99.89
48404;BME280;34202;52.536;6.042;2023-01-29T01:18:28;103002.58;;;3.20;100.00
48404;BME280;34202;52.536;6.042;2023-01-29T01:23:29;103005.91;;;3.20;100.00
48404;BME280;34202;52.536;6.042;2023-01-29T01:28:29;103004.17;;;3.20;100.00
48404;BME280;34202;52.536;6.042;2023-01-29T01:33:30;103014.59;;;3.21;100.00
48404;BME280;34202;52.536;6.042;2023-01-29T01:38:30;103009.98;;;3.22;100.00
48404;BME280;34202;52.536;6.042;2023-01-29T01:43:49;103011.45;;;3.23;100.00
48404;BME280;34202;52.536;6.042;2023-01-29T01:48:55;103014.48;;;3.25;100.00
48404;BME280;34202;52.536;6.042;2023-01-29T01:54:11;103015.36;;;3.25;100.00
48404;BME280;34202;52.536;6.042;2023-01-29T01:59:15;103019.88;;;3.25;100.00
48404;BME280;34202;52.536;6.042;2023-01-29T02:04:19;103019.36;;;3.25;100.00
48404;BME280;34202;52.536;6.042;2023-01-29T02:09:51;103016.00;;;3.27;100.00
48404;BME280;34202;52.536;6.042;2023-01-29T02:14:52;103021.09;;;3.28;100.00
48404;BME280;34202;52.536;6.042;2023-01-29T02:20:08;103023.58;;;3.29;100.00
48404;BME280;34202;52.536;6.042;2023-01-29T02:26:05;103024.71;;;3.31;100.00
48404;BME280;34202;52.536;6.042;2023-01-29T02:35:55;103033.67;;;3.31;100.00
48404;BME280;34202;52.536;6.042;2023-01-29T02:41:03;103033.89;;;3.32;100.00
48404;BME280;34202;52.536;6.042;2023-01-29T02:51:23;103022.54;;;3.32;100.00
48404;BME280;34202;52.536;6.042;2023-01-29T02:56:39;103024.25;;;3.32;100.00
48404;BME280;34202;52.536;6.042;2023-01-29T03:02:01;103023.40;;;3.32;100.00
48404;BME280;34202;52.536;6.042;2023-01-29T03:07:07;103010.14;;;3.32;100.00
48404;BME280;34202;52.536;6.042;2023-01-29T03:12:25;102997.57;;;3.31;100.00
48404;BME280;34202;52.536;6.042;2023-01-29T03:17:36;102984.27;;;3.31;100.00
48404;BME280;34202;52.536;6.042;2023-01-29T03:22:40;102979.33;;;3.29;100.00
48404;BME280;34202;52.536;6.042;2023-01-29T03:27:48;102970.50;;;3.28;100.00
48404;BME280;34202;52.536;6.042;2023-01-29T03:33:11;102964.02;;;3.26;100.00
48404;BME280;34202;52.536;6.042;2023-01-29T03:38:13;102951.45;;;3.26;100.00
48404;BME280;34202;52.536;6.042;2023-01-29T03:43:32;102942.98;;;3.26;100.00
48404;BME280;34202;52.536;6.042;2023-01-29T03:48:48;102933.48;;;3.25;100.00
48404;BME280;34202;52.536;6.042;2023-01-29T03:54:01;102923.61;;;3.25;100.00
48404;BME280;34202;52.536;6.042;2023-01-29T03:59:18;102925.15;;;3.24;100.00
48404;BME280;34202;52.536;6.042;2023-01-29T04:04:26;102923.94;;;3.24;100.00
48404;BME280;34202;52.536;6.042;2023-01-29T04:09:31;102922.38;;;3.24;100.00
48404;BME280;34202;52.536;6.042;2023-01-29T04:14:34;102923.42;;;3.22;100.00
48404;BME280;34202;52.536;6.042;2023-01-29T04:19:34;102926.09;;;3.20;100.00
48404;BME280;34202;52.536;6.042;2023-01-29T04:24:36;102923.75;;;3.19;100.00
48404;BME280;34202;52.536;6.042;2023-01-29T04:29:42;102916.91;;;3.17;100.00
48404;BME280;34202;52.536;6.042;2023-01-29T04:35:00;102913.11;;;3.17;100.00
48404;BME280;34202;52.536;6.042;2023-01-29T04:40:25;102909.80;;;3.17;100.00
48404;BME280;34202;52.536;6.042;2023-01-29T04:45:33;102910.70;;;3.17;100.00
48404;BME280;34202;52.536;6.042;2023-01-29T04:50:40;102903.58;;;3.16;100.00
48404;BME280;34202;52.536;6.042;2023-01-29T04:55:49;102897.04;;;3.16;100.00
48404;BME280;34202;52.536;6.042;2023-01-29T05:00:52;102895.68;;;3.17;100.00
48404;BME280;34202;52.536;6.042;2023-01-29T05:05:54;102896.23;;;3.17;100.00
48404;BME280;34202;52.536;6.042;2023-01-29T05:10:58;102906.68;;;3.16;100.00
48404;BME280;34202;52.536;6.042;2023-01-29T05:16:16;102917.68;;;3.16;100.00
48404;BME280;34202;52.536;6.042;2023-01-29T05:21:19;102924.75;;;3.16;100.00
48404;BME280;34202;52.536;6.042;2023-01-29T05:26:22;102926.58;;;3.18;100.00
48404;BME280;34202;52.536;6.042;2023-01-29T05:31:43;102920.98;;;3.19;100.00
48404;BME280;34202;52.536;6.042;2023-01-29T05:36:43;102907.98;;;3.20;100.00
48404;BME280;34202;52.536;6.042;2023-01-29T05:41:43;102886.77;;;3.20;100.00
48404;BME280;34202;52.536;6.042;2023-01-29T05:46:44;102886.88;;;3.21;100.00
48404;BME280;34202;52.536;6.042;2023-01-29T05:51:45;102881.46;;;3.22;100.00
48404;BME280;34202;52.536;6.042;2023-01-29T05:56:45;102870.46;;;3.22;100.00
48404;BME280;34202;52.536;6.042;2023-01-29T06:01:46;102865.02;;;3.23;100.00
48404;BME280;34202;52.536;6.042;2023-01-29T06:06:46;102851.95;;;3.23;100.00
48404;BME280;34202;52.536;6.042;2023-01-29T06:11:46;102844.33;;;3.23;100.00
48404;BME280;34202;52.536;6.042;2023-01-29T06:16:47;102848.30;;;3.23;100.00
48404;BME280;34202;52.536;6.042;2023-01-29T06:21:47;102849.48;;;3.22;100.00
48404;BME280;34202;52.536;6.042;2023-01-29T06:26:47;102850.02;;;3.23;100.00
48404;BME280;34202;52.536;6.042;2023-01-29T06:31:48;102845.16;;;3.22;100.00
48404;BME280;34202;52.536;6.042;2023-01-29T06:36:48;102841.41;;;3.23;100.00
48404;BME280;34202;52.536;6.042;2023-01-29T06:41:48;102829.29;;;3.22;100.00
48404;BME280;34202;52.536;6.042;2023-01-29T06:46:49;102827.76;;;3.20;100.00
48404;BME280;34202;52.536;6.042;2023-01-29T06:51:49;102820.94;;;3.18;100.00
48404;BME280;34202;52.536;6.042;2023-01-29T06:56:50;102821.04;;;3.17;100.00
48404;BME280;34202;52.536;6.042;2023-01-29T07:01:50;102824.21;;;3.15;100.00
48404;BME280;34202;52.536;6.042;2023-01-29T07:06:51;102829.48;;;3.15;100.00
48404;BME280;34202;52.536;6.042;2023-01-29T07:11:51;102820.61;;;3.13;100.00
48404;BME280;34202;52.536;6.042;2023-01-29T07:16:51;102829.73;;;3.13;100.00
48404;BME280;34202;52.536;6.042;2023-01-29T07:21:52;102830.05;;;3.13;100.00
48404;BME280;34202;52.536;6.042;2023-01-29T07:26:52;102821.16;;;3.14;100.00
48404;BME280;34202;52.536;6.042;2023-01-29T07:31:52;102811.66;;;3.14;100.00
48404;BME280;34202;52.536;6.042;2023-01-29T07:36:53;102810.28;;;3.13;100.00
48404;BME280;34202;52.536;6.042;2023-01-29T07:41:53;102815.11;;;3.13;100.00
48404;BME280;34202;52.536;6.042;2023-01-29T07:46:54;102802.77;;;3.14;100.00
48404;BME280;34202;52.536;6.042;2023-01-29T07:51:54;102789.59;;;3.15;100.00
48404;BME280;34202;52.536;6.042;2023-01-29T07:56:55;102793.62;;;3.16;100.00
48404;BME280;34202;52.536;6.042;2023-01-29T08:01:55;102783.61;;;3.18;100.00
48404;BME280;34202;52.536;6.042;2023-01-29T08:06:55;102777.82;;;3.19;100.00
48404;BME280;34202;52.536;6.042;2023-01-29T08:11:56;102778.06;;;3.20;100.00
48404;BME280;34202;52.536;6.042;2023-01-29T08:16:56;102772.96;;;3.21;100.00
48404;BME280;34202;52.536;6.042;2023-01-29T08:21:57;102780.66;;;3.23;100.00
48404;BME280;34202;52.536;6.042;2023-01-29T08:26:57;102781.66;;;3.25;100.00
48404;BME280;34202;52.536;6.042;2023-01-29T08:31:58;102779.43;;;3.27;100.00
48404;BME280;34202;52.536;6.042;2023-01-29T08:36:58;102772.38;;;3.30;100.00
48404;BME280;34202;52.536;6.042;2023-01-29T08:41:58;102774.11;;;3.33;100.00
48404;BME280;34202;52.536;6.042;2023-01-29T08:46:59;102768.94;;;3.36;100.00
48404;BME280;34202;52.536;6.042;2023-01-29T08:51:59;102758.48;;;3.39;100.00
48404;BME280;34202;52.536;6.042;2023-01-29T08:56:59;102761.66;;;3.42;100.00
48404;BME280;34202;52.536;6.042;2023-01-29T09:02:00;102757.70;;;3.45;100.00
48404;BME280;34202;52.536;6.042;2023-01-29T09:07:00;102758.10;;;3.48;100.00
48404;BME280;34202;52.536;6.042;2023-01-29T09:12:00;102757.98;;;3.52;100.00
48404;BME280;34202;52.536;6.042;2023-01-29T09:17:00;102752.18;;;3.55;100.00
48404;BME280;34202;52.536;6.042;2023-01-29T09:22:01;102747.93;;;3.59;100.00
48404;BME280;34202;52.536;6.042;2023-01-29T09:27:01;102748.03;;;3.63;100.00
48404;BME280;34202;52.536;6.042;2023-01-29T09:32:05;102748.17;;;3.68;100.00
48404;BME280;34202;52.536;6.042;2023-01-29T09:37:05;102745.06;;;3.73;100.00
48404;BME280;34202;52.536;6.042;2023-01-29T09:42:11;102742.54;;;3.79;100.00
48404;BME280;34202;52.536;6.042;2023-01-29T09:47:15;102744.54;;;3.86;100.00
48404;BME280;34202;52.536;6.042;2023-01-29T09:52:24;102741.00;;;3.93;100.00
48404;BME280;34202;52.536;6.042;2023-01-29T09:57:46;102740.13;;;4.01;100.00
48404;BME280;34202;52.536;6.042;2023-01-29T10:02:59;102731.08;;;4.07;100.00
48404;BME280;34202;52.536;6.042;2023-01-29T10:08:22;102725.57;;;4.13;100.00
48404;BME280;34202;52.536;6.042;2023-01-29T10:13:34;102720.84;;;4.17;100.00
48404;BME280;34202;52.536;6.042;2023-01-29T10:18:54;102715.36;;;4.23;100.00
48404;BME280;34202;52.536;6.042;2023-01-29T10:29:31;102704.08;;;4.36;100.00
48404;BME280;34202;52.536;6.042;2023-01-29T10:34:44;102699.15;;;4.40;100.00
48404;BME280;34202;52.536;6.042;2023-01-29T10:39:47;102694.00;;;4.43;100.00
48404;BME280;34202;52.536;6.042;2023-01-29T10:50:46;102676.94;;;4.46;100.00
48404;BME280;34202;52.536;6.042;2023-01-29T10:56:04;102677.59;;;4.49;100.00
48404;BME280;34202;52.536;6.042;2023-01-29T11:01:11;102670.14;;;4.51;100.00
48404;BME280;34202;52.536;6.042;2023-01-29T11:06:18;102665.88;;;4.54;100.00
48404;BME280;34202;52.536;6.042;2023-01-29T11:11:21;102662.68;;;4.55;100.00
48404;BME280;34202;52.536;6.042;2023-01-29T11:16:28;102655.48;;;4.56;99.93
48404;BME280;34202;52.536;6.042;2023-01-29T11:21:29;102646.14;;;4.58;99.95
48404;BME280;34202;52.536;6.042;2023-01-29T11:26:33;102646.55;;;4.63;99.91
48404;BME280;34202;52.536;6.042;2023-01-29T11:31:36;102639.44;;;4.65;99.73
48404;BME280;34202;52.536;6.042;2023-01-29T11:36:38;102628.04;;;4.67;99.78
48404;BME280;34202;52.536;6.042;2023-01-29T11:41:59;102620.11;;;4.70;99.74
48404;BME280;34202;52.536;6.042;2023-01-29T11:52:18;102596.29;;;4.76;99.99
48404;BME280;34202;52.536;6.042;2023-01-29T12:02:41;102582.92;;;4.81;99.90
48404;BME280;34202;52.536;6.042;2023-01-29T12:07:44;102580.30;;;4.80;99.60
48404;BME280;34202;52.536;6.042;2023-01-29T12:12:45;102569.21;;;4.82;99.88
48404;BME280;34202;52.536;6.042;2023-01-29T12:23:56;102546.55;;;4.87;99.62
48404;BME280;34202;52.536;6.042;2023-01-29T12:39:19;102519.77;;;4.92;99.74
48404;BME280;34202;52.536;6.042;2023-01-29T12:44:30;102499.84;;;4.88;99.82
48404;BME280;34202;52.536;6.042;2023-01-29T12:49:34;102484.47;;;4.81;99.85
48404;BME280;34202;52.536;6.042;2023-01-29T12:54:45;102473.32;;;4.76;99.91
48404;BME280;34202;52.536;6.042;2023-01-29T12:59:52;102463.85;;;4.74;100.00
48404;BME280;34202;52.536;6.042;2023-01-29T13:05:04;102452.66;;;4.71;100.00
48404;BME280;34202;52.536;6.042;2023-01-29T13:10:12;102444.46;;;4.69;100.00
48404;BME280;34202;52.536;6.042;2023-01-29T13:15:29;102430.05;;;4.68;100.00
48404;BME280;34202;52.536;6.042;2023-01-29T13:20:32;102419.63;;;4.66;100.00
48404;BME280;34202;52.536;6.042;2023-01-29T13:25:34;102415.17;;;4.67;100.00
48404;BME280;34202;52.536;6.042;2023-01-29T13:30:35;102397.70;;;4.69;100.00
48404;BME280;34202;52.536;6.042;2023-01-29T13:35:39;102388.80;;;4.70;100.00
48404;BME280;34202;52.536;6.042;2023-01-29T13:40:47;102386.02;;;4.73;100.00
48404;BME280;34202;52.536;6.042;2023-01-29T13:45:51;102376.56;;;4.76;100.00
48404;BME280;34202;52.536;6.042;2023-01-29T13:50:56;102368.99;;;4.80;100.00
48404;BME280;34202;52.536;6.042;2023-01-29T14:06:50;102357.85;;;4.94;100.00
48404;BME280;34202;52.536;6.042;2023-01-29T14:11:51;102350.43;;;4.97;100.00
48404;BME280;34202;52.536;6.042;2023-01-29T14:16:59;102334.80;;;4.98;100.00
48404;BME280;34202;52.536;6.042;2023-01-29T14:22:01;102329.98;;;4.99;100.00
48404;BME280;34202;52.536;6.042;2023-01-29T14:27:02;102333.36;;;4.97;100.00
48404;BME280;34202;52.536;6.042;2023-01-29T14:42:25;102325.48;;;4.89;100.00
48404;BME280;34202;52.536;6.042;2023-01-29T14:52:32;102308.96;;;4.80;100.00
48404;BME280;34202;52.536;6.042;2023-01-29T14:57:35;102298.84;;;4.78;100.00
48404;BME280;34202;52.536;6.042;2023-01-29T15:02:40;102298.71;;;4.76;100.00
48404;BME280;34202;52.536;6.042;2023-01-29T15:07:54;102294.48;;;4.74;100.00
48404;BME280;34202;52.536;6.042;2023-01-29T15:13:02;102291.34;;;4.73;100.00
48404;BME280;34202;52.536;6.042;2023-01-29T15:18:08;102290.55;;;4.71;100.00
48404;BME280;34202;52.536;6.042;2023-01-29T15:23:25;102277.98;;;4.68;100.00
48404;BME280;34202;52.536;6.042;2023-01-29T15:28:28;102267.87;;;4.66;100.00
48404;BME280;34202;52.536;6.042;2023-01-29T15:33:31;102263.62;;;4.64;100.00
48404;BME280;34202;52.536;6.042;2023-01-29T15:38:32;102262.37;;;4.63;100.00
48404;BME280;34202;52.536;6.042;2023-01-29T15:43:42;102261.27;;;4.62;100.00
48404;BME280;34202;52.536;6.042;2023-01-29T15:48:43;102254.31;;;4.61;100.00
48404;BME280;34202;52.536;6.042;2023-01-29T15:58:53;102256.77;;;4.58;100.00
48404;BME280;34202;52.536;6.042;2023-01-29T16:03:56;102248.02;;;4.59;100.00
48404;BME280;34202;52.536;6.042;2023-01-29T16:09:03;102238.49;;;4.59;100.00
48404;BME280;34202;52.536;6.042;2023-01-29T16:14:05;102230.50;;;4.58;100.00
48404;BME280;34202;52.536;6.042;2023-01-29T16:24:23;102231.55;;;4.55;100.00
48404;BME280;34202;52.536;6.042;2023-01-29T16:29:30;102226.27;;;4.53;100.00
48404;BME280;34202;52.536;6.042;2023-01-29T16:34:37;102226.70;;;4.51;100.00
48404;BME280;34202;52.536;6.042;2023-01-29T16:39:42;102224.35;;;4.49;100.00
48404;BME280;34202;52.536;6.042;2023-01-29T16:44:52;102217.52;;;4.47;100.00
48404;BME280;34202;52.536;6.042;2023-01-29T16:50:22;102213.95;;;4.44;100.00
48404;BME280;34202;52.536;6.042;2023-01-29T16:55:21;102207.84;;;4.43;100.00
48404;BME280;34202;52.536;6.042;2023-01-29T17:00:26;102193.44;;;4.41;100.00
48404;BME280;34202;52.536;6.042;2023-01-29T17:05:30;102192.04;;;4.41;100.00
48404;BME280;34202;52.536;6.042;2023-01-29T17:10:31;102190.49;;;4.41;100.00
48404;BME280;34202;52.536;6.042;2023-01-29T17:15:44;102192.20;;;4.41;100.00
48404;BME280;34202;52.536;6.042;2023-01-29T17:20:45;102182.02;;;4.40;100.00
48404;BME280;34202;52.536;6.042;2023-01-29T17:25:46;102176.98;;;4.40;100.00
48404;BME280;34202;52.536;6.042;2023-01-29T17:30:47;102174.36;;;4.39;100.00
48404;BME280;34202;52.536;6.042;2023-01-29T17:35:48;102157.42;;;4.38;100.00
48404;BME280;34202;52.536;6.042;2023-01-29T17:40:55;102155.64;;;4.37;100.00
48404;BME280;34202;52.536;6.042;2023-01-29T17:45:57;102152.35;;;4.37;100.00
48404;BME280;34202;52.536;6.042;2023-01-29T17:51:00;102140.38;;;4.35;100.00
48404;BME280;34202;52.536;6.042;2023-01-29T17:56:02;102139.31;;;4.35;100.00
48404;BME280;34202;52.536;6.042;2023-01-29T18:01:02;102131.66;;;4.34;100.00
48404;BME280;34202;52.536;6.042;2023-01-29T18:06:05;102121.79;;;4.33;100.00
48404;BME280;34202;52.536;6.042;2023-01-29T18:11:09;102115.88;;;4.32;100.00
48404;BME280;34202;52.536;6.042;2023-01-29T18:16:11;102103.61;;;4.31;100.00
48404;BME280;34202;52.536;6.042;2023-01-29T18:21:12;102106.33;;;4.30;100.00
48404;BME280;34202;52.536;6.042;2023-01-29T18:26:15;102103.36;;;4.30;100.00
48404;BME280;34202;52.536;6.042;2023-01-29T18:31:15;102090.09;;;4.30;100.00
48404;BME280;34202;52.536;6.042;2023-01-29T18:36:16;102074.41;;;4.30;100.00
48404;BME280;34202;52.536;6.042;2023-01-29T18:41:16;102067.20;;;4.30;100.00
48404;BME280;34202;52.536;6.042;2023-01-29T18:46:17;102056.36;;;4.31;100.00
48404;BME280;34202;52.536;6.042;2023-01-29T18:51:17;102048.09;;;4.31;100.00
48404;BME280;34202;52.536;6.042;2023-01-29T18:56:18;102034.16;;;4.31;100.00
48404;BME280;34202;52.536;6.042;2023-01-29T19:01:19;102022.42;;;4.31;100.00
48404;BME280;34202;52.536;6.042;2023-01-29T19:06:20;102016.02;;;4.31;100.00
48404;BME280;34202;52.536;6.042;2023-01-29T19:11:20;102021.35;;;4.30;100.00
48404;BME280;34202;52.536;6.042;2023-01-29T19:16:20;102026.34;;;4.30;100.00
48404;BME280;34202;52.536;6.042;2023-01-29T19:21:21;102013.02;;;4.29;100.00
48404;BME280;34202;52.536;6.042;2023-01-29T19:26:22;102010.25;;;4.29;100.00
48404;BME280;34202;52.536;6.042;2023-01-29T19:31:22;101999.38;;;4.28;100.00
48404;BME280;34202;52.536;6.042;2023-01-29T19:36:23;101982.69;;;4.29;100.00
48404;BME280;34202;52.536;6.042;2023-01-29T19:41:24;101980.62;;;4.29;100.00
48404;BME280;34202;52.536;6.042;2023-01-29T19:46:24;101972.74;;;4.30;100.00
48404;BME280;34202;52.536;6.042;2023-01-29T19:51:24;101974.19;;;4.31;100.00
48404;BME280;34202;52.536;6.042;2023-01-29T19:56:25;101978.67;;;4.32;100.00
48404;BME280;34202;52.536;6.042;2023-01-29T20:01:25;101973.34;;;4.32;100.00
48404;BME280;34202;52.536;6.042;2023-01-29T20:06:28;101976.29;;;4.32;100.00
48404;BME280;34202;52.536;6.042;2023-01-29T20:11:30;101967.39;;;4.33;100.00
48404;BME280;34202;52.536;6.042;2023-01-29T20:16:30;101958.27;;;4.34;100.00
48404;BME280;34202;52.536;6.042;2023-01-29T20:21:31;101956.56;;;4.34;100.00
48404;BME280;34202;52.536;6.042;2023-01-29T20:26:31;101949.54;;;4.35;100.00
48404;BME280;34202;52.536;6.042;2023-01-29T20:31:32;101933.34;;;4.35;100.00
48404;BME280;34202;52.536;6.042;2023-01-29T20:36:32;101952.48;;;4.35;100.00
48404;BME280;34202;52.536;6.042;2023-01-29T20:41:32;101947.00;;;4.36;100.00
48404;BME280;34202;52.536;6.042;2023-01-29T20:46:33;101936.53;;;4.36;100.00
48404;BME280;34202;52.536;6.042;2023-01-29T20:51:37;101939.86;;;4.37;100.00
48404;BME280;34202;52.536;6.042;2023-01-29T20:56:37;101915.06;;;4.38;100.00
48404;BME280;34202;52.536;6.042;2023-01-29T21:01:40;101933.26;;;4.40;100.00
48404;BME280;34202;52.536;6.042;2023-01-29T21:06:41;101934.73;;;4.42;100.00
48404;BME280;34202;52.536;6.042;2023-01-29T21:11:41;101917.09;;;4.44;100.00
48404;BME280;34202;52.536;6.042;2023-01-29T21:16:43;101914.49;;;4.48;100.00
48404;BME280;34202;52.536;6.042;2023-01-29T21:21:44;101920.68;;;4.51;100.00
48404;BME280;34202;52.536;6.042;2023-01-29T21:26:45;101921.02;;;4.54;100.00
48404;BME280;34202;52.536;6.042;2023-01-29T21:31:45;101916.20;;;4.58;100.00
48404;BME280;34202;52.536;6.042;2023-01-29T21:36:45;101923.61;;;4.61;100.00
48404;BME280;34202;52.536;6.042;2023-01-29T21:41:47;101904.79;;;4.64;100.00
48404;BME280;34202;52.536;6.042;2023-01-29T21:47:06;101872.52;;;4.68;100.00
48404;BME280;34202;52.536;6.042;2023-01-29T21:52:13;101846.45;;;4.71;100.00
48404;BME280;34202;52.536;6.042;2023-01-29T21:57:15;101821.67;;;4.72;100.00
48404;BME280;34202;52.536;6.042;2023-01-29T22:02:16;101803.73;;;4.72;100.00
48404;BME280;34202;52.536;6.042;2023-01-29T22:07:16;101795.98;;;4.72;100.00
48404;BME280;34202;52.536;6.042;2023-01-29T22:12:16;101774.64;;;4.73;100.00
48404;BME280;34202;52.536;6.042;2023-01-29T22:17:17;101761.39;;;4.73;100.00
48404;BME280;34202;52.536;6.042;2023-01-29T22:22:19;101755.20;;;4.74;100.00
48404;BME280;34202;52.536;6.042;2023-01-29T22:27:20;101747.05;;;4.77;100.00
48404;BME280;34202;52.536;6.042;2023-01-29T22:32:20;101736.52;;;4.80;100.00
48404;BME280;34202;52.536;6.042;2023-01-29T22:37:20;101728.17;;;4.83;100.00
48404;BME280;34202;52.536;6.042;2023-01-29T22:42:20;101718.06;;;4.88;100.00
48404;BME280;34202;52.536;6.042;2023-01-29T22:47:21;101708.05;;;4.92;100.00
48404;BME280;34202;52.536;6.042;2023-01-29T22:52:21;101699.79;;;4.96;100.00
48404;BME280;34202;52.536;6.042;2023-01-29T22:57:21;101696.34;;;5.00;100.00
48404;BME280;34202;52.536;6.042;2023-01-29T23:02:22;101709.25;;;5.04;100.00
48404;BME280;34202;52.536;6.042;2023-01-29T23:07:23;101724.27;;;5.08;100.00
48404;BME280;34202;52.536;6.042;2023-01-29T23:12:23;101720.29;;;5.12;100.00
48404;BME280;34202;52.536;6.042;2023-01-29T23:17:23;101710.82;;;5.16;100.00
48404;BME280;34202;52.536;6.042;2023-01-29T23:22:24;101713.42;;;5.21;100.00
48404;BME280;34202;52.536;6.042;2023-01-29T23:27:24;101706.20;;;5.25;100.00
48404;BME280;34202;52.536;6.042;2023-01-29T23:32:24;101696.56;;;5.30;100.00
48404;BME280;34202;52.536;6.042;2023-01-29T23:37:25;101685.00;;;5.34;100.00
48404;BME280;34202;52.536;6.042;2023-01-29T23:42:26;101672.54;;;5.38;100.00
48404;BME280;34202;52.536;6.042;2023-01-29T23:47:26;101672.36;;;5.42;100.00
48404;BME280;34202;52.536;6.042;2023-01-29T23:52:26;101658.84;;;5.45;100.00
48404;BME280;34202;52.536;6.042;2023-01-29T23:57:26;101653.59;;;5.47;100.00
